Time;durP1;ratioP1;P1;durP2;ratioP2;P2;SDS_P1;SDS_P2;PMS_P1;PMS_P2;Temp;Humidity;BMP_temperature;BMP_pressure;BME280_temperature;BME280_humidity;BME280_pressure;Samples;Min_cycle;Max_cycle;Signal;HPM_P1;HPM_P2
2022/06/02 04:16:18;;;;;;;8.35;6.90;;;;;;;14.52;100.00;100406.59;5545462;32;34159;-86
2022/06/02 04:23:39;;;;;;;6.40;5.80;;;;;;;14.55;100.00;100416.22;5545434;32;34328;-87
2022/06/02 04:27:08;;;;;;;6.75;6.15;;;;;;;14.64;100.00;100431.59;5544675;32;34523;-86
2022/06/02 04:30:30;;;;;;;6.90;5.97;;;;;;;14.63;100.00;100426.38;5547338;32;34496;-87
2022/06/02 04:33:35;;;;;;;6.32;5.72;;;;;;;14.69;100.00;100429.50;5558808;32;34877;-87
2022/06/02 04:36:56;;;;;;;9.27;5.97;;;;;;;14.68;100.00;100435.78;5549558;32;34556;-87
2022/06/02 04:40:10;;;;;;;10.57;6.30;;;;;;;14.92;100.00;100436.94;5544506;32;33527;-86
2022/06/02 04:43:18;;;;;;;6.50;5.90;;;;;;;14.94;100.00;100440.41;5540816;32;34473;-86
2022/06/02 04:46:47;;;;;;;10.93;6.55;;;;;;;14.88;100.00;100438.97;5531013;32;34433;-86
2022/06/02 04:49:55;;;;;;;7.78;5.50;;;;;;;14.95;100.00;100434.94;5534045;32;33785;-87
2022/06/02 04:53:20;;;;;;;6.62;5.60;;;;;;;15.00;100.00;100433.78;5544620;32;34108;-87
2022/06/02 04:56:42;;;;;;;6.37;5.78;;;;;;;15.07;100.00;100443.06;5537246;32;34457;-86
2022/06/02 05:00:18;;;;;;;9.55;6.15;;;;;;;15.11;100.00;100443.72;5544520;32;34550;-86
2022/06/02 05:03:39;;;;;;;9.70;5.80;;;;;;;15.23;100.00;100448.22;5533117;32;34830;-86
2022/06/02 05:07:21;;;;;;;6.87;6.22;;;;;;;15.40;100.00;100444.41;5541800;32;33807;-86
2022/06/02 05:11:07;;;;;;;6.60;6.00;;;;;;;15.54;100.00;100440.75;5523765;32;34390;-90
2022/06/02 05:14:39;;;;;;;6.75;6.07;;;;;;;15.61;99.46;100446.56;5533970;32;34360;-86
2022/06/02 05:17:51;;;;;;;8.55;6.32;;;;;;;15.63;99.67;100448.16;5547409;32;34523;-87
2022/06/02 05:21:31;;;;;;;9.02;7.05;;;;;;;15.67;100.00;100451.47;5558362;32;35018;-87
2022/06/02 05:24:59;;;;;;;;;;;;;;;15.65;100.00;100460.56;5546518;32;35295;-87
2022/06/02 05:28:13;;;;;;;6.93;5.80;;;;;;;15.63;98.68;100466.00;5543554;32;35063;-87
2022/06/02 05:31:37;;;;;;;6.95;5.22;;;;;;;15.77;98.95;100465.03;5534748;32;35252;-89
2022/06/02 05:34:52;;;;;;;8.63;5.90;;;;;;;15.80;95.55;100461.31;5532313;32;34325;-87
2022/06/02 05:38:10;;;;;;;6.70;5.53;;;;;;;15.84;95.85;100477.00;5530680;32;34029;-87
2022/06/02 05:41:33;;;;;;;5.90;5.37;;;;;;;15.88;95.81;100478.53;5515366;32;34253;-87
2022/06/02 05:44:48;;;;;;;5.87;5.20;;;;;;;15.82;93.93;100483.44;5531996;32;33857;-86
2022/06/02 05:47:58;;;;;;;9.05;5.87;;;;;;;15.90;95.33;100486.44;5525407;32;35050;-86
2022/06/02 05:51:26;;;;;;;5.90;5.28;;;;;;;15.87;95.77;100490.19;5526517;32;34303;-86
2022/06/02 05:54:50;;;;;;;9.35;6.20;;;;;;;16.79;90.07;100477.47;5532593;32;33750;-86
2022/06/02 05:58:01;;;;;;;8.98;5.40;;;;;;;16.74;90.42;100475.09;5535877;32;34779;-86
2022/06/02 06:01:23;;;;;;;9.05;5.75;;;;;;;16.64;91.79;100474.94;5527047;32;35201;-84
2022/06/02 06:05:02;;;;;;;7.30;5.70;;;;;;;16.55;92.12;100476.47;5535600;32;34258;-85
2022/06/02 06:08:26;;;;;;;8.00;6.07;;;;;;;16.71;91.85;100475.34;5534571;32;33869;-84
2022/06/02 06:11:49;;;;;;;7.95;5.70;;;;;;;16.73;91.68;100486.78;5520623;32;33784;-85
2022/06/02 06:15:08;;;;;;;9.10;6.18;;;;;;;16.67;92.54;100495.28;5511100;32;34767;-86
2022/06/02 06:18:31;;;;;;;5.93;5.43;;;;;;;16.38;93.75;100485.75;5512779;32;34051;-86
2022/06/02 06:21:57;;;;;;;6.90;5.60;;;;;;;16.92;90.80;100494.31;5511027;32;34772;-87
2022/06/02 06:25:11;;;;;;;8.00;5.65;;;;;;;17.25;89.62;100494.56;5525514;32;33989;-89
2022/06/02 06:28:17;;;;;;;5.62;5.05;;;;;;;17.19;88.36;100500.41;5513038;32;34573;-87
2022/06/02 06:31:28;;;;;;;5.57;4.97;;;;;;;17.67;88.00;100494.09;5510014;32;34551;-87
2022/06/02 06:34:42;;;;;;;5.60;4.05;;;;;;;19.69;76.93;100501.03;5529237;32;33854;-86
2022/06/02 06:38:13;;;;;;;5.47;3.97;;;;;;;21.46;63.50;100510.56;5530602;32;34453;-87
2022/06/02 06:41:37;;;;;;;5.78;4.05;;;;;;;22.78;61.96;100521.44;5511354;32;33909;-86
2022/06/02 06:44:51;;;;;;;3.85;3.50;;;;;;;21.57;61.60;100523.03;5510462;32;33799;-85
2022/06/02 06:48:01;;;;;;;5.78;3.85;;;;;;;21.48;59.63;100530.97;5514014;32;34030;-87
2022/06/02 06:51:20;;;;;;;;;;;;;;;21.45;62.30;100530.41;5513098;32;34222;-87
2022/06/02 06:54:46;;;;;;;9.20;3.80;;;;;;;20.67;64.12;100526.69;5514018;32;34289;-87
2022/06/02 06:58:20;;;;;;;11.27;3.70;;;;;;;20.78;62.26;100528.41;5509772;32;33345;-87
2022/06/02 07:01:41;;;;;;;4.20;3.80;;;;;;;20.80;63.07;100521.87;5510414;32;33631;-86
2022/06/02 07:04:50;;;;;;;6.50;3.90;;;;;;;20.75;63.60;100526.81;5513495;32;34769;-87
2022/06/02 07:08:06;;;;;;;9.35;3.70;;;;;;;21.18;60.97;100527.47;5523084;32;33813;-86
2022/06/02 07:14:47;;;;;;;4.00;3.60;;;;;;;21.97;59.29;100534.63;5524415;32;34803;-87
2022/06/02 07:17:59;;;;;;;5.82;3.67;;;;;;;22.28;59.76;100542.47;5512488;32;34211;-86
2022/06/02 07:21:46;;;;;;;5.85;3.28;;;;;;;22.52;56.73;100536.50;5516690;32;34092;-86
2022/06/02 07:25:07;;;;;;;6.65;3.95;;;;;;;23.32;55.44;100543.09;5524145;32;34483;-90
2022/06/02 07:28:46;;;;;;;4.07;3.70;;;;;;;22.67;55.67;100533.31;5530124;32;34028;-87
2022/06/02 07:32:11;;;;;;;5.53;3.70;;;;;;;22.38;56.19;100535.13;5494015;32;34990;-85
2022/06/02 07:35:19;;;;;;;4.70;3.40;;;;;;;22.20;57.59;100532.37;5516929;32;34210;-84
2022/06/02 07:38:56;;;;;;;6.37;3.80;;;;;;;22.41;56.49;100528.56;5532673;32;32720;-85
2022/06/02 07:42:06;;;;;;;4.87;3.92;;;;;;;22.94;55.69;100521.59;5533823;32;34009;-85
2022/06/02 07:45:17;;;;;;;4.43;3.50;;;;;;;23.92;51.63;100517.12;5529111;32;34266;-86
2022/06/02 07:48:39;;;;;;;6.30;3.70;;;;;;;25.03;49.90;100522.63;5521636;32;33904;-86
2022/06/02 07:51:51;;;;;;;6.82;4.03;;;;;;;25.37;47.87;100530.75;5511901;32;34025;-89
2022/06/02 07:55:12;;;;;;;9.18;3.92;;;;;;;25.15;46.82;100535.87;5517774;32;33962;-90
2022/06/02 07:58:29;;;;;;;4.97;3.72;;;;;;;25.38;48.44;100527.03;5511293;32;34394;-85
2022/06/02 08:01:50;;;;;;;6.68;4.15;;;;;;;25.47;49.69;100526.00;5525041;32;34140;-84
2022/06/02 08:05:15;;;;;;;5.50;3.95;;;;;;;25.02;50.49;100528.22;5521082;32;34294;-86
2022/06/02 08:08:34;;;;;;;8.23;3.62;;;;;;;24.68;51.65;100532.69;5518454;32;32317;-86
2022/06/02 08:11:37;;;;;;;8.82;3.80;;;;;;;24.81;51.66;100526.84;5513932;32;33738;-87
2022/06/02 08:15:17;;;;;;;5.60;3.45;;;;;;;25.36;50.70;100535.37;5529846;32;33181;-85
2022/06/02 08:18:36;;;;;;;4.07;3.12;;;;;;;25.63;48.40;100543.31;5517565;32;34495;-86
2022/06/02 08:21:46;;;;;;;7.05;3.47;;;;;;;25.33;49.97;100537.56;5528223;32;33533;-89
2022/06/02 08:24:54;;;;;;;4.82;3.20;;;;;;;25.16;50.22;100545.69;5521434;32;34802;-86
2022/06/02 08:28:21;;;;;;;3.67;3.37;;;;;;;24.73;50.99;100541.19;5514344;32;33855;-86
2022/06/02 08:31:36;;;;;;;3.92;3.53;;;;;;;24.57;51.89;100541.13;5511923;32;33484;-85
2022/06/02 08:35:06;;;;;;;4.78;3.50;;;;;;;25.11;50.78;100535.34;5516370;32;32879;-84
2022/06/02 08:38:49;;;;;;;9.85;3.50;;;;;;;25.65;49.15;100534.00;5519231;32;33874;-83
2022/06/02 08:42:22;;;;;;;5.62;3.40;;;;;;;27.28;45.35;100538.19;5510976;32;34910;-84
2022/06/02 08:45:33;;;;;;;4.53;3.40;;;;;;;28.54;41.24;100542.19;5512506;32;33878;-84
2022/06/02 08:48:48;;;;;;;3.60;3.20;;;;;;;28.10;42.40;100539.28;5510607;32;33757;-87
2022/06/02 08:52:25;;;;;;;5.22;3.58;;;;;;;28.22;41.65;100542.41;5513074;32;33919;-85
2022/06/02 08:55:57;;;;;;;3.55;3.28;;;;;;;28.11;40.91;100540.97;5514225;32;34026;-84
2022/06/02 08:59:22;;;;;;;3.58;2.95;;;;;;;29.26;40.63;100539.59;5511978;32;33250;-88
2022/06/02 09:02:43;;;;;;;4.95;3.15;;;;;;;29.18;37.89;100542.47;5512436;32;34437;-87
2022/06/02 09:06:24;;;;;;;2.90;2.70;;;;;;;29.91;37.29;100546.00;5521561;32;35062;-87
2022/06/02 09:10:08;;;;;;;3.05;2.85;;;;;;;29.67;36.64;100538.06;5509921;32;32748;-91
2022/06/02 09:13:30;;;;;;;3.60;2.90;;;;;;;29.70;39.92;100534.94;5527414;32;34451;-86
2022/06/02 09:16:47;;;;;;;3.67;2.70;;;;;;;30.35;36.16;100538.47;5523638;32;34548;-87
2022/06/02 09:20:13;;;;;;;3.40;3.10;;;;;;;29.77;36.91;100543.16;5517407;32;32961;-87
2022/06/02 09:23:16;;;;;;;4.25;3.03;;;;;;;30.86;35.90;100556.34;5516489;32;34614;-88
2022/06/02 09:26:51;;;;;;;4.28;3.00;;;;;;;30.49;34.68;100550.31;5519974;32;33774;-87
2022/06/02 09:30:25;;;;;;;4.10;2.67;;;;;;;31.17;37.57;100548.63;5531336;32;34419;-85
2022/06/02 09:33:43;;;;;;;4.22;2.90;;;;;;;31.22;34.85;100545.25;5522809;32;33953;-88
2022/06/02 09:36:54;;;;;;;4.37;2.85;;;;;;;31.51;34.59;100556.91;5519645;32;34056;-85
2022/06/02 09:40:37;;;;;;;3.62;2.80;;;;;;;31.63;34.09;100551.59;5519631;32;32819;-84
2022/06/02 09:43:40;;;;;;;7.15;3.05;;;;;;;32.05;34.19;100551.34;5517916;32;34768;-86
2022/06/02 09:47:24;;;;;;;5.28;2.90;;;;;;;33.01;32.09;100548.84;5519091;32;34482;-86
2022/06/02 09:50:43;;;;;;;5.35;3.00;;;;;;;33.72;31.46;100554.19;5503136;32;34318;-85
2022/06/02 09:54:08;;;;;;;4.18;3.35;;;;;;;32.33;32.84;100550.19;5522506;32;33754;-85
2022/06/02 09:57:55;;;;;;;3.62;2.87;;;;;;;31.51;33.69;100543.19;5513724;32;33773;-88
2022/06/02 10:01:34;;;;;;;3.90;3.15;;;;;;;32.71;32.49;100537.56;5519367;32;34221;-87
2022/06/02 10:05:06;;;;;;;3.63;3.30;;;;;;;32.51;33.12;100539.38;5512149;32;34368;-89
2022/06/02 10:08:19;;;;;;;4.12;3.03;;;;;;;29.50;37.56;100537.50;5516910;32;32765;-87
2022/06/02 10:11:41;;;;;;;4.03;3.50;;;;;;;30.10;37.42;100534.38;5522207;32;33873;-85
2022/06/02 10:15:41;;;;;;;3.17;2.97;;;;;;;29.90;37.93;100531.47;5517542;32;34430;-86
2022/06/02 10:19:11;;;;;;;5.07;2.87;;;;;;;31.29;35.99;100527.81;5501301;32;34084;-89
2022/06/02 10:22:30;;;;;;;5.20;3.05;;;;;;;31.64;35.42;100534.94;5527758;32;33621;-85
2022/06/02 10:25:49;;;;;;;2.85;2.65;;;;;;;30.93;35.89;100529.00;5523996;32;34234;-88
2022/06/02 10:29:16;;;;;;;3.27;2.60;;;;;;;30.60;37.81;100524.25;5517602;32;33797;-87
2022/06/02 10:32:38;;;;;;;5.72;3.90;;;;;;;30.09;38.29;100529.94;5547815;26;33373;-87
2022/06/02 10:36:25;;;;;;;3.10;2.90;;;;;;;29.17;40.40;100529.88;5531027;32;33998;-87
2022/06/02 10:39:47;;;;;;;3.20;2.90;;;;;;;28.60;41.92;100533.22;5534928;32;34500;-89
2022/06/02 10:42:59;;;;;;;3.00;2.80;;;;;;;28.65;41.79;100527.19;5546540;32;34638;-86
2022/06/02 10:46:11;;;;;;;4.57;2.70;;;;;;;28.06;43.87;100527.06;5542695;32;33666;-87
2022/06/02 10:49:15;;;;;;;4.25;2.78;;;;;;;27.24;45.61;100526.84;5533227;32;34735;-88
2022/06/02 10:52:30;;;;;;;3.67;3.20;;;;;;;27.96;44.54;100519.16;5537648;32;33922;-88
2022/06/02 10:55:51;;;;;;;3.22;3.03;;;;;;;27.90;44.21;100522.66;5547396;32;34289;-87
2022/06/02 11:06:43;;;;;;;6.75;3.40;;;;;;;30.08;40.89;100527.38;794453;26;20987;-87
2022/06/02 11:40:48;;;;;;;4.07;2.97;;;;;;;30.76;37.54;100528.53;4066858;29;20095;-90
2022/06/02 11:48:10;;;;;;;3.22;2.67;;;;;;;30.57;38.17;100525.50;5450124;26;20429;-90
2022/06/02 11:51:27;;;;;;;3.53;2.47;;;;;;;30.34;38.07;100531.31;5559177;32;34622;-89
2022/06/02 11:55:01;;;;;;;3.83;2.40;;;;;;;29.58;39.71;100531.91;5552907;32;33728;-87
2022/06/02 12:05:48;;;;;;;2.97;2.58;;;;;;;29.90;38.57;100527.91;3176235;26;20094;-89
2022/06/02 12:08:59;;;;;;;6.22;2.60;;;;;;;28.64;41.82;100534.56;5557527;32;35205;-93
2022/06/02 12:12:11;;;;;;;3.30;2.40;;;;;;;29.36;39.95;100527.50;5549941;32;34251;-88
2022/06/02 12:15:51;;;;;;;2.25;2.05;;;;;;;29.75;38.92;100533.50;5549354;32;34801;-88
2022/06/02 12:19:06;;;;;;;2.40;2.20;;;;;;;29.09;39.70;100529.97;5548579;32;34261;-88
2022/06/02 12:22:36;;;;;;;4.78;2.03;;;;;;;29.54;38.79;100538.81;5548443;32;33876;-88
2022/06/02 12:25:59;;;;;;;3.37;2.30;;;;;;;29.92;37.99;100531.28;5539209;32;33904;-88
2022/06/02 12:29:31;;;;;;;2.92;2.10;;;;;;;29.82;37.85;100537.94;5548604;32;33964;-88
2022/06/02 12:32:57;;;;;;;2.62;2.00;;;;;;;29.74;37.16;100538.13;5515811;32;33224;-89
2022/06/02 12:36:09;;;;;;;2.83;1.80;;;;;;;29.07;38.40;100530.19;5559163;31;34731;-90
2022/06/02 12:46:59;;;;;;;7.40;1.90;;;;;;;28.96;37.24;100523.34;988748;26;21074;-88
2022/06/02 12:50:44;;;;;;;2.42;1.60;;;;;;;28.42;38.33;100539.13;5556852;32;32340;-88
2022/06/02 12:54:09;;;;;;;4.22;1.77;;;;;;;28.61;37.30;100537.66;5534380;32;34144;-92
2022/06/02 12:57:47;;;;;;;5.03;1.85;;;;;;;28.09;38.43;100551.25;5567385;32;33528;-88
2022/06/02 13:01:09;;;;;;;1.70;1.60;;;;;;;28.62;37.55;100543.97;5562337;32;33880;-88
2022/06/02 13:04:49;;;;;;;5.87;1.70;;;;;;;28.24;38.01;100547.69;5611170;26;32472;-87
2022/06/02 13:08:16;;;;;;;1.80;1.48;;;;;;;28.42;36.97;100549.16;5565557;32;35149;-89
2022/06/02 13:11:39;;;;;;;3.05;1.70;;;;;;;27.62;37.90;100547.81;5569093;32;33957;-88
2022/06/02 13:30:28;;;;;;;3.65;1.65;;;;;;;27.86;37.89;100551.34;5568176;32;33394;-88
2022/06/02 13:33:34;;;;;;;;;;;;;;;28.02;37.72;100541.25;5559378;32;34263;-87
2022/06/02 13:36:55;;;;;;;2.95;1.70;;;;;;;27.36;37.59;100540.88;5545336;32;34419;-87
2022/06/02 13:40:08;;;;;;;2.17;1.65;;;;;;;27.82;37.49;100533.66;5541480;32;31750;-87
2022/06/02 13:43:28;;;;;;;2.22;1.33;;;;;;;28.05;37.53;100533.56;5548458;32;32462;-87
2022/06/02 13:46:59;;;;;;;6.53;1.65;;;;;;;27.60;37.23;100528.06;5551219;32;34477;-87
2022/06/02 13:50:20;;;;;;;3.30;1.52;;;;;;;27.18;38.99;100536.59;5535869;32;33817;-87
2022/06/02 13:53:38;;;;;;;2.50;1.62;;;;;;;27.88;37.11;100534.78;5558485;32;32375;-88
2022/06/02 14:00:14;;;;;;;2.05;1.42;;;;;;;27.31;37.14;100533.22;5563227;32;32638;-88
2022/06/02 14:03:39;;;;;;;5.15;1.62;;;;;;;27.68;35.71;100525.28;5557613;32;35195;-87
2022/06/02 14:07:11;;;;;;;2.47;1.60;;;;;;;27.82;35.14;100528.19;5527366;32;34591;-92
